Time;durP1;ratioP1;P1;durP2;ratioP2;P2;SDS_P1;SDS_P2;PMS_P1;PMS_P2;Temp;Humidity;BMP_temperature;BMP_pressure;BME280_temperature;BME280_humidity;BME280_pressure;Samples;Min_cycle;Max_cycle;Signal;HPM_P1;HPM_P2
2023/04/13 00:02:23;;;;;;;2.10;0.73;;;;;;;18.95;39.99;99350.63;4986789;28;20041;-70
2023/04/13 00:04:49;;;;;;;1.45;0.60;;;;;;;18.94;39.78;99346.31;4991121;28;20074;-69
2023/04/13 00:07:16;;;;;;;1.88;0.80;;;;;;;18.93;40.04;99341.22;4986308;28;20113;-69
2023/04/13 00:09:44;;;;;;;2.30;0.80;;;;;;;18.93;39.97;99339.41;4995164;28;20485;-70
2023/04/13 00:12:09;;;;;;;2.70;0.70;;;;;;;18.90;39.93;99342.38;5004359;28;20121;-69
2023/04/13 00:14:35;;;;;;;1.00;0.40;;;;;;;18.89;39.82;99337.28;4989881;28;20133;-68
2023/04/13 00:17:01;;;;;;;2.42;0.70;;;;;;;18.89;40.00;99332.00;4984631;28;20630;-69
2023/04/13 00:19:27;;;;;;;1.88;0.68;;;;;;;18.89;40.00;99339.91;4987351;28;20030;-69
2023/04/13 00:21:53;;;;;;;2.58;0.80;;;;;;;18.90;39.96;99336.25;4977490;28;20054;-69
2023/04/13 00:24:18;;;;;;;1.55;0.60;;;;;;;18.90;39.79;99338.91;4994592;28;20042;-69
2023/04/13 00:26:44;;;;;;;2.95;0.88;;;;;;;18.89;39.88;99343.38;4984099;28;20042;-69
2023/04/13 00:29:10;;;;;;;2.75;0.70;;;;;;;18.89;39.96;99337.28;4989493;28;20045;-69
2023/04/13 00:31:35;;;;;;;2.92;0.68;;;;;;;18.88;39.89;99341.72;4996087;28;20503;-69
2023/04/13 00:34:00;;;;;;;2.47;0.68;;;;;;;18.88;40.02;99338.25;4989438;28;20469;-69
2023/04/13 00:36:26;;;;;;;1.60;0.60;;;;;;;18.84;40.04;99333.31;4992879;28;20048;-69
2023/04/13 00:38:53;;;;;;;1.95;0.65;;;;;;;18.84;40.02;99343.03;5001586;28;20462;-69
2023/04/13 00:41:19;;;;;;;1.88;0.50;;;;;;;18.87;39.86;99344.50;4991774;28;20391;-69
2023/04/13 00:43:44;;;;;;;2.55;0.73;;;;;;;18.83;39.98;99339.56;4999694;28;20034;-69
2023/04/13 00:46:10;;;;;;;2.10;0.80;;;;;;;18.83;40.12;99344.00;4997524;28;20084;-69
2023/04/13 00:48:35;;;;;;;2.25;0.70;;;;;;;18.81;40.09;99340.72;4991190;28;20044;-70
2023/04/13 00:51:02;;;;;;;1.70;0.50;;;;;;;18.81;40.09;99344.16;4995311;28;20097;-69
2023/04/13 00:53:28;;;;;;;2.00;0.60;;;;;;;18.83;40.03;99344.00;4987361;28;20108;-69
2023/04/13 00:55:54;;;;;;;1.75;0.50;;;;;;;18.81;40.08;99346.81;4996247;28;20034;-69
2023/04/13 00:58:21;;;;;;;2.05;0.60;;;;;;;18.78;39.83;99346.31;4975486;28;20033;-68
2023/04/13 01:00:46;;;;;;;2.28;0.85;;;;;;;18.78;40.05;99347.13;4991539;28;20084;-69
2023/04/13 01:03:11;;;;;;;1.85;0.73;;;;;;;18.76;39.91;99341.19;4994332;28;20041;-69
2023/04/13 01:05:56;;;;;;;4.03;0.63;;;;;;;18.74;40.20;99343.19;4992100;28;20050;-69
2023/04/13 01:08:27;;;;;;;2.65;0.60;;;;;;;18.78;40.10;99348.94;5000775;28;20470;-69
2023/04/13 01:11:00;;;;;;;1.95;0.80;;;;;;;18.78;40.11;99343.66;4993790;28;20469;-69
2023/04/13 01:13:41;;;;;;;3.08;0.65;;;;;;;18.72;40.16;99336.41;4999837;28;20123;-69
2023/04/13 01:16:17;;;;;;;1.92;0.60;;;;;;;18.73;40.15;99344.16;4990255;28;20041;-70
2023/04/13 01:18:46;;;;;;;2.33;0.70;;;;;;;18.73;40.09;99343.34;4983629;28;20494;-70
2023/04/13 01:21:15;;;;;;;2.40;0.70;;;;;;;18.71;40.05;99337.38;4991132;28;20040;-71
2023/04/13 01:24:16;;;;;;;1.98;0.70;;;;;;;18.67;40.13;99337.75;4990844;28;20050;-71
2023/04/13 01:26:56;;;;;;;1.75;0.70;;;;;;;18.70;40.24;99348.97;4997364;28;20296;-69
2023/04/13 01:29:21;;;;;;;2.13;0.70;;;;;;;18.67;40.25;99342.19;4987552;28;20391;-71
2023/04/13 01:31:48;;;;;;;1.77;0.68;;;;;;;18.66;40.25;99337.91;5000838;28;20038;-69
2023/04/13 01:34:13;;;;;;;2.92;0.90;;;;;;;18.70;40.23;99352.41;4978010;28;20040;-70
2023/04/13 01:36:39;;;;;;;1.65;0.60;;;;;;;18.65;40.47;99339.72;4996297;28;20034;-70
2023/04/13 01:39:04;;;;;;;2.42;0.80;;;;;;;18.68;40.30;99355.22;4996388;28;20116;-69
2023/04/13 01:41:29;;;;;;;1.80;0.60;;;;;;;18.66;40.31;99354.56;4986542;28;20038;-70
2023/04/13 01:43:55;;;;;;;2.22;0.70;;;;;;;18.68;40.44;99368.41;4989973;28;20034;-70
2023/04/13 01:46:25;;;;;;;1.23;0.55;;;;;;;18.65;40.52;99357.34;4996835;28;20471;-71
2023/04/13 01:48:55;;;;;;;0.82;0.50;;;;;;;18.65;40.46;99368.72;4987306;28;20026;-69
2023/04/13 01:51:23;;;;;;;2.15;0.68;;;;;;;18.69;40.03;99374.50;4981670;28;20092;-68
2023/04/13 01:53:55;;;;;;;1.63;0.50;;;;;;;18.68;40.32;99375.50;5002806;28;20037;-69
2023/04/13 01:56:21;;;;;;;2.75;0.80;;;;;;;18.67;40.33;99379.97;5001114;28;20507;-69
2023/04/13 01:58:50;;;;;;;1.70;0.60;;;;;;;18.66;40.24;99380.13;4969978;28;20037;-69
2023/04/13 02:01:16;;;;;;;2.70;0.70;;;;;;;18.63;40.42;99391.81;4986761;28;20125;-69
2023/04/13 02:03:42;;;;;;;1.77;0.63;;;;;;;18.67;40.44;99398.44;4982837;28;20431;-69
2023/04/13 02:06:09;;;;;;;1.42;0.50;;;;;;;18.66;40.31;99412.63;4999461;28;20061;-69
2023/04/13 02:08:35;;;;;;;3.17;0.80;;;;;;;18.62;40.34;99405.19;4995213;28;20053;-69
2023/04/13 02:11:02;;;;;;;2.72;0.80;;;;;;;18.65;40.31;99412.78;4993210;28;20110;-69
2023/04/13 02:13:28;;;;;;;2.45;0.50;;;;;;;18.64;40.50;99419.03;4987811;28;20087;-69
2023/04/13 02:15:53;;;;;;;2.65;0.70;;;;;;;18.65;40.15;99431.25;4996756;28;20049;-69
2023/04/13 02:18:19;;;;;;;2.38;0.60;;;;;;;18.65;40.39;99424.16;4994197;28;20030;-69
2023/04/13 02:20:44;;;;;;;1.75;0.70;;;;;;;18.63;40.35;99423.50;4992805;28;20041;-70
2023/04/13 02:23:13;;;;;;;2.53;0.80;;;;;;;18.60;40.21;99423.81;4991745;28;20513;-69
2023/04/13 02:25:40;;;;;;;4.00;0.70;;;;;;;18.60;40.36;99433.56;4998926;28;20295;-69
2023/04/13 02:28:06;;;;;;;3.20;0.80;;;;;;;18.61;40.47;99443.09;5001536;28;20663;-70
2023/04/13 02:30:31;;;;;;;1.50;0.60;;;;;;;18.59;40.36;99453.00;4988173;28;20057;-70
2023/04/13 02:32:56;;;;;;;1.67;0.75;;;;;;;18.60;40.35;99449.38;4989626;28;20125;-70
2023/04/13 02:35:21;;;;;;;2.42;0.80;;;;;;;18.60;40.22;99444.09;4994409;28;20030;-70
2023/04/13 02:37:47;;;;;;;2.47;0.80;;;;;;;18.58;40.41;99444.25;4982013;28;20049;-69
2023/04/13 02:40:13;;;;;;;3.05;0.80;;;;;;;18.59;40.21;99448.53;4982259;28;20042;-69
2023/04/13 02:42:39;;;;;;;2.65;0.77;;;;;;;18.58;40.53;99461.88;4987733;28;20038;-70
2023/04/13 02:45:06;;;;;;;1.85;0.77;;;;;;;18.60;40.42;99467.84;4989458;28;20390;-69
2023/04/13 02:47:33;;;;;;;1.98;0.55;;;;;;;18.58;40.48;99468.00;4995905;28;20485;-69
2023/04/13 02:50:00;;;;;;;2.72;0.70;;;;;;;18.54;40.06;99461.38;4994791;28;20084;-70
2023/04/13 02:52:26;;;;;;;2.30;0.70;;;;;;;18.54;40.39;99466.66;4993940;28;20030;-70
2023/04/13 02:54:53;;;;;;;2.63;0.80;;;;;;;18.56;40.30;99463.88;5001048;28;20056;-69
2023/04/13 02:57:19;;;;;;;3.92;0.80;;;;;;;18.55;40.24;99470.97;4969006;28;20386;-70
2023/04/13 02:59:45;;;;;;;2.72;0.70;;;;;;;18.54;40.47;99468.50;4985480;28;20053;-70
2023/04/13 03:02:11;;;;;;;2.03;0.60;;;;;;;18.52;40.22;99467.81;4996157;28;20034;-69
2023/04/13 03:04:36;;;;;;;1.48;0.60;;;;;;;18.52;40.58;99481.84;4992313;28;20161;-69
2023/04/13 03:07:06;;;;;;;3.38;0.80;;;;;;;18.51;40.64;99500.47;4998604;28;20108;-68
2023/04/13 03:09:32;;;;;;;2.30;0.60;;;;;;;18.50;40.45;99504.94;4982187;28;20601;-69
2023/04/13 03:11:57;;;;;;;2.00;0.68;;;;;;;18.51;40.61;99518.94;4984856;28;20038;-70
2023/04/13 03:14:22;;;;;;;2.17;0.60;;;;;;;18.48;40.59;99509.50;4991138;28;20026;-70
2023/04/13 03:16:48;;;;;;;3.60;0.80;;;;;;;18.52;40.43;99525.84;4987377;28;20034;-69
2023/04/13 03:19:15;;;;;;;2.25;0.60;;;;;;;18.51;40.49;99526.84;4986724;28;20065;-70
2023/04/13 03:21:41;;;;;;;1.90;0.60;;;;;;;18.49;40.41;99519.91;4996877;28;20062;-70
2023/04/13 03:24:07;;;;;;;2.35;0.60;;;;;;;18.51;40.28;99532.94;4994069;28;20402;-68
2023/04/13 03:26:32;;;;;;;1.67;0.60;;;;;;;18.48;40.44;99534.09;4997065;28;20041;-69
2023/04/13 03:28:58;;;;;;;2.13;0.75;;;;;;;18.47;40.48;99540.34;4996441;28;20030;-69
2023/04/13 03:31:24;;;;;;;1.67;0.75;;;;;;;18.49;40.36;99537.56;4993901;28;20451;-69
2023/04/13 03:33:49;;;;;;;2.17;0.70;;;;;;;18.49;40.26;99551.56;4971711;28;20045;-70
2023/04/13 03:36:15;;;;;;;1.85;0.68;;;;;;;18.49;40.35;99550.75;4983357;28;20069;-69
2023/04/13 03:38:40;;;;;;;1.98;0.68;;;;;;;18.46;40.30;99551.88;4986138;28;20045;-70
2023/04/13 03:41:06;;;;;;;2.50;0.80;;;;;;;18.48;40.40;99557.00;4988850;28;20145;-69
2023/04/13 03:43:31;;;;;;;2.67;0.80;;;;;;;18.47;40.37;99569.38;4987649;28;20045;-70
2023/04/13 03:45:57;;;;;;;2.55;0.80;;;;;;;18.46;40.36;99570.34;5000292;28;20038;-70
2023/04/13 03:48:22;;;;;;;2.20;0.90;;;;;;;18.48;40.29;99572.81;5000371;28;20669;-70
2023/04/13 03:50:47;;;;;;;3.10;0.77;;;;;;;18.44;40.08;99569.69;4991358;28;20034;-70
2023/04/13 03:53:13;;;;;;;2.25;0.80;;;;;;;18.44;40.36;99572.31;4991310;28;21571;-70
2023/04/13 03:55:38;;;;;;;2.13;0.80;;;;;;;18.45;40.44;99581.06;4989911;28;20098;-70
2023/04/13 03:58:04;;;;;;;1.35;0.60;;;;;;;18.44;40.29;99576.78;4991260;28;20037;-69
2023/04/13 04:00:29;;;;;;;2.33;0.73;;;;;;;18.43;40.60;99589.13;4986750;28;20041;-70
2023/04/13 04:02:54;;;;;;;2.80;1.00;;;;;;;18.44;40.45;99590.78;4988525;28;20410;-70
2023/04/13 04:05:19;;;;;;;2.88;0.82;;;;;;;18.42;40.38;99584.84;4985182;28;20100;-70
2023/04/13 04:07:45;;;;;;;2.15;0.70;;;;;;;18.42;40.55;99590.13;4997538;28;20077;-70
2023/04/13 04:10:10;;;;;;;3.30;0.80;;;;;;;18.44;40.53;99601.34;4994684;28;20145;-69
2023/04/13 04:12:35;;;;;;;2.47;0.90;;;;;;;18.44;40.33;99605.81;5003183;28;20394;-69
2023/04/13 04:15:01;;;;;;;2.60;0.73;;;;;;;18.43;40.42;99606.78;4988032;28;20035;-68
2023/04/13 04:17:26;;;;;;;2.20;0.77;;;;;;;18.42;40.36;99605.97;4972469;28;20072;-69
2023/04/13 04:19:51;;;;;;;2.28;0.77;;;;;;;18.41;40.20;99612.19;4985619;28;20395;-70
2023/04/13 04:22:17;;;;;;;3.22;0.80;;;;;;;18.40;40.19;99620.28;4995725;28;20120;-69
2023/04/13 04:24:42;;;;;;;2.88;0.82;;;;;;;18.42;40.13;99620.94;5001776;28;20033;-71
2023/04/13 04:27:08;;;;;;;2.58;0.80;;;;;;;18.41;40.19;99627.22;4987063;28;20549;-68
2023/04/13 04:29:34;;;;;;;2.03;0.80;;;;;;;18.41;40.18;99628.03;4997428;28;20525;-69
2023/04/13 04:32:00;;;;;;;2.40;0.90;;;;;;;18.40;40.37;99629.00;4984899;28;20038;-70
2023/04/13 04:34:25;;;;;;;2.08;0.60;;;;;;;18.42;40.22;99645.53;4990337;28;20060;-70
2023/04/13 04:36:51;;;;;;;3.00;0.93;;;;;;;18.41;40.19;99635.94;4986524;28;20034;-68
2023/04/13 04:39:21;;;;;;;2.78;0.70;;;;;;;18.40;40.41;99644.00;4992754;28;20113;-68
2023/04/13 04:42:02;;;;;;;1.63;0.70;;;;;;;18.36;40.31;99642.66;4994806;28;20033;-69
2023/04/13 04:44:29;;;;;;;3.60;0.73;;;;;;;18.36;40.04;99650.56;5000493;28;20053;-69
2023/04/13 04:46:58;;;;;;;2.63;0.70;;;;;;;18.36;40.20;99648.78;4991549;28;21011;-69
2023/04/13 04:49:24;;;;;;;2.90;0.82;;;;;;;18.37;40.33;99657.50;4993306;28;20034;-70
2023/04/13 04:51:50;;;;;;;3.72;0.90;;;;;;;18.33;40.10;99662.28;4999923;28;20492;-70
2023/04/13 04:54:17;;;;;;;3.50;0.90;;;;;;;18.34;40.30;99668.38;4984749;28;20049;-70
2023/04/13 04:56:43;;;;;;;3.05;1.10;;;;;;;18.33;40.10;99664.09;4983964;28;20045;-69
2023/04/13 04:59:09;;;;;;;3.65;0.80;;;;;;;18.35;40.25;99664.75;4996758;28;20041;-71
2023/04/13 05:01:34;;;;;;;4.80;0.90;;;;;;;18.29;40.14;99669.69;4968219;28;20457;-69
2023/04/13 05:04:00;;;;;;;2.05;0.70;;;;;;;18.30;40.25;99676.59;4986660;28;20041;-70
2023/04/13 05:06:26;;;;;;;2.45;0.70;;;;;;;18.30;40.66;99670.50;4991794;28;20142;-70
2023/04/13 05:08:51;;;;;;;2.63;0.90;;;;;;;18.31;40.83;99680.88;4983272;28;20034;-70
2023/04/13 05:11:17;;;;;;;3.10;0.80;;;;;;;18.31;40.88;99677.44;4987272;28;20045;-70
2023/04/13 05:13:42;;;;;;;1.98;0.70;;;;;;;18.35;40.98;99672.66;4998934;28;20042;-70
2023/04/13 05:16:09;;;;;;;2.25;0.70;;;;;;;18.37;41.08;99670.69;4987502;28;20137;-70
2023/04/13 05:18:45;;;;;;;1.20;0.50;;;;;;;18.40;41.11;99671.22;4991307;28;20475;-70
2023/04/13 05:21:12;;;;;;;2.03;0.70;;;;;;;18.37;41.08;99662.78;4995035;28;20038;-69
2023/04/13 05:23:38;;;;;;;2.50;0.70;;;;;;;18.44;41.07;99675.22;4984310;28;20065;-70
2023/04/13 05:26:04;;;;;;;3.78;0.88;;;;;;;18.48;40.95;99683.63;4993767;28;20035;-72
2023/04/13 05:28:29;;;;;;;2.13;0.77;;;;;;;18.53;40.96;99693.72;4988500;28;20038;-72
2023/04/13 05:31:00;;;;;;;2.63;0.77;;;;;;;18.55;40.93;99689.09;4988458;28;20034;-71
2023/04/13 05:33:25;;;;;;;3.05;0.88;;;;;;;18.59;40.63;99690.47;4995169;28;20033;-71
2023/04/13 05:35:51;;;;;;;2.00;0.63;;;;;;;18.59;40.77;99690.47;4995086;28;20470;-71
2023/04/13 05:38:16;;;;;;;2.43;0.73;;;;;;;18.62;40.79;99701.53;4989555;28;20361;-73
2023/04/13 05:40:41;;;;;;;1.10;0.60;;;;;;;18.68;40.52;99700.91;4992978;28;20263;-71
2023/04/13 05:43:06;;;;;;;1.65;0.50;;;;;;;18.71;40.51;99709.50;4996522;28;20039;-71
2023/04/13 05:45:32;;;;;;;2.25;0.75;;;;;;;18.72;40.71;99706.69;4994653;28;20545;-71
2023/04/13 05:47:57;;;;;;;1.85;0.70;;;;;;;18.77;40.80;99719.44;4988596;28;20129;-72
2023/04/13 05:50:22;;;;;;;5.75;0.90;;;;;;;18.78;41.22;99732.47;4982221;28;20034;-72
2023/04/13 05:52:47;;;;;;;2.92;0.70;;;;;;;18.79;41.35;99733.31;4986340;28;20034;-69
2023/04/13 05:55:13;;;;;;;2.00;0.70;;;;;;;18.79;41.24;99733.31;4987002;28;20483;-72
2023/04/13 05:57:39;;;;;;;1.05;0.50;;;;;;;18.84;41.44;99733.72;4997407;28;20270;-70
2023/04/13 06:00:07;;;;;;;2.47;0.80;;;;;;;18.84;41.34;99741.63;4985464;28;20128;-71
2023/04/13 06:02:33;;;;;;;2.53;0.73;;;;;;;18.84;41.55;99742.44;4981798;28;20391;-71
2023/04/13 06:05:00;;;;;;;3.20;0.90;;;;;;;18.85;41.64;99754.66;4986875;28;20376;-71
2023/04/13 06:07:26;;;;;;;2.00;0.60;;;;;;;18.81;41.14;99750.63;4983643;28;20126;-70
2023/04/13 06:09:52;;;;;;;1.88;0.60;;;;;;;18.87;41.45;99767.72;4991290;28;20031;-70
2023/04/13 06:12:17;;;;;;;3.13;0.82;;;;;;;18.89;41.56;99775.47;4983256;28;20030;-70
2023/04/13 06:14:43;;;;;;;2.38;0.57;;;;;;;18.87;41.75;99773.00;4993880;28;20205;-69
2023/04/13 06:17:08;;;;;;;2.47;0.60;;;;;;;18.89;41.65;99778.13;4989663;28;20031;-70
2023/04/13 06:19:33;;;;;;;2.15;0.70;;;;;;;18.89;41.83;99778.13;4987264;28;20410;-71
2023/04/13 06:21:59;;;;;;;2.83;0.63;;;;;;;18.89;41.83;99780.75;4985799;28;20092;-72
2023/04/13 06:24:24;;;;;;;2.78;0.70;;;;;;;18.90;41.66;99785.03;4993172;28;20624;-75
2023/04/13 06:26:50;;;;;;;1.93;0.53;;;;;;;18.91;41.68;99787.53;4978329;28;20489;-69
2023/04/13 06:29:15;;;;;;;2.15;0.80;;;;;;;18.93;41.84;99782.09;4990797;28;20322;-70
2023/04/13 06:31:40;;;;;;;2.67;0.70;;;;;;;18.92;41.68;99780.44;4999646;28;20116;-70
2023/04/13 06:34:06;;;;;;;3.95;0.70;;;;;;;18.89;42.08;99786.84;4999462;28;20029;-71
2023/04/13 06:36:31;;;;;;;3.38;0.68;;;;;;;18.91;42.02;99792.81;4982489;28;20069;-72
2023/04/13 06:38:57;;;;;;;1.48;0.68;;;;;;;18.91;41.95;99798.09;4998361;28;20033;-72
2023/04/13 06:41:23;;;;;;;2.90;0.80;;;;;;;18.92;42.17;99805.03;4986790;28;20030;-74
2023/04/13 06:43:48;;;;;;;5.50;0.63;;;;;;;18.93;42.15;99809.34;4992572;28;20037;-72
2023/04/13 06:46:13;;;;;;;2.78;0.70;;;;;;;18.89;42.38;99807.97;5001737;28;20026;-71
2023/04/13 06:48:39;;;;;;;3.92;0.80;;;;;;;18.93;42.14;99824.31;4989058;28;20037;-71
2023/04/13 06:51:04;;;;;;;4.47;1.02;;;;;;;18.95;42.13;99819.75;4992005;28;20033;-68
2023/04/13 06:53:29;;;;;;;5.85;0.98;;;;;;;18.94;42.23;99820.72;4999211;28;20049;-68
2023/04/13 06:55:55;;;;;;;3.08;0.80;;;;;;;18.94;42.02;99826.00;4992430;28;20116;-71
2023/04/13 06:58:22;;;;;;;2.83;0.70;;;;;;;18.94;42.16;99831.28;4993223;28;20026;-69
2023/04/13 07:00:47;;;;;;;2.50;0.70;;;;;;;18.96;42.10;99829.31;4989151;28;20121;-68
2023/04/13 07:03:12;;;;;;;3.03;0.80;;;;;;;18.95;42.16;99836.41;4988248;28;20184;-71
2023/04/13 07:05:37;;;;;;;3.25;0.65;;;;;;;18.95;42.10;99849.59;4973208;28;20045;-68
2023/04/13 07:08:04;;;;;;;4.47;1.00;;;;;;;18.96;42.49;99840.72;4996440;28;20068;-68
2023/04/13 07:10:29;;;;;;;5.85;0.90;;;;;;;18.95;42.35;99852.25;4977212;28;20030;-71
2023/04/13 07:12:55;;;;;;;2.58;0.55;;;;;;;18.94;42.41;99853.22;4991745;28;20471;-70
2023/04/13 07:15:20;;;;;;;4.13;0.75;;;;;;;18.95;42.23;99854.88;4976427;28;20038;-70
2023/04/13 07:17:46;;;;;;;3.50;0.90;;;;;;;18.96;42.30;99863.63;4992239;28;20030;-69
2023/04/13 07:20:12;;;;;;;4.93;0.85;;;;;;;18.93;42.30;99859.50;4994592;28;20076;-69
2023/04/13 07:22:37;;;;;;;4.10;0.80;;;;;;;18.97;42.15;99875.84;4985394;28;20042;-68
2023/04/13 07:25:04;;;;;;;3.30;0.80;;;;;;;18.95;42.15;99880.47;4985552;28;20045;-70
2023/04/13 07:27:29;;;;;;;3.88;0.93;;;;;;;18.98;42.15;99880.97;4992847;28;20538;-70
2023/04/13 07:29:55;;;;;;;4.45;0.70;;;;;;;18.96;42.38;99888.25;4988503;28;20121;-71
2023/04/13 07:32:21;;;;;;;3.47;0.85;;;;;;;18.96;42.27;99884.75;4989114;28;20034;-70
2023/04/13 07:34:46;;;;;;;3.88;0.80;;;;;;;18.97;42.47;99891.69;4988076;28;20096;-70
2023/04/13 07:37:11;;;;;;;3.55;1.20;;;;;;;18.98;42.53;99898.66;4991013;28;20062;-71
2023/04/13 07:39:37;;;;;;;4.88;1.00;;;;;;;18.99;42.52;99905.56;4994151;28;20038;-72
2023/04/13 07:42:02;;;;;;;4.70;0.90;;;;;;;19.02;42.40;99905.25;4980011;28;20042;-71
2023/04/13 07:44:27;;;;;;;5.70;1.23;;;;;;;19.03;42.55;99914.84;4996990;28;20716;-70
2023/04/13 07:46:54;;;;;;;4.07;0.93;;;;;;;19.00;42.24;99909.88;4989049;28;20045;-67
2023/04/13 07:49:21;;;;;;;7.20;1.17;;;;;;;18.97;42.37;99910.19;4995854;28;20037;-69
2023/04/13 07:51:47;;;;;;;6.03;1.02;;;;;;;18.99;42.18;99929.34;4995477;28;20367;-68
2023/04/13 07:54:12;;;;;;;6.85;1.10;;;;;;;18.97;42.03;99918.09;5004239;28;20044;-68
2023/04/13 07:56:37;;;;;;;5.35;0.95;;;;;;;18.99;42.17;99924.06;4987472;28;20499;-69
2023/04/13 07:59:02;;;;;;;5.53;1.15;;;;;;;18.97;41.92;99921.56;4994873;28;20038;-69
2023/04/13 08:01:28;;;;;;;5.07;1.38;;;;;;;18.96;42.08;99929.63;4994332;28;20041;-69
2023/04/13 08:03:53;;;;;;;6.38;1.15;;;;;;;18.99;42.20;99935.47;4996870;28;20033;-67
2023/04/13 08:06:22;;;;;;;5.30;1.08;;;;;;;19.00;42.02;99931.00;4993235;28;20037;-67
2023/04/13 08:08:47;;;;;;;4.97;1.60;;;;;;;19.10;42.10;99944.13;4978232;28;20073;-68
2023/04/13 08:11:13;;;;;;;6.65;1.15;;;;;;;19.12;41.97;99948.28;4989644;28;20058;-67
2023/04/13 08:13:39;;;;;;;8.90;1.52;;;;;;;19.13;41.97;99947.28;4997519;28;20140;-67
2023/04/13 08:16:05;;;;;;;4.55;1.10;;;;;;;19.08;42.15;99951.38;4990873;28;20060;-69
2023/04/13 08:18:31;;;;;;;6.55;1.17;;;;;;;19.09;41.95;99966.22;4994146;28;20038;-70
2023/04/13 08:20:57;;;;;;;7.40;1.60;;;;;;;19.08;41.76;99965.41;4997133;28;21017;-66
2023/04/13 08:23:23;;;;;;;5.25;1.92;;;;;;;19.12;42.05;99969.41;4993470;28;20145;-68
2023/04/13 08:25:48;;;;;;;6.65;1.40;;;;;;;19.14;41.89;99969.25;5001797;28;20113;-68
2023/04/13 08:28:14;;;;;;;5.55;1.42;;;;;;;19.14;42.08;99969.25;4987720;28;20065;-65
2023/04/13 08:30:39;;;;;;;5.15;1.02;;;;;;;19.16;41.74;99978.66;4984174;28;20393;-69
2023/04/13 08:33:05;;;;;;;4.43;1.52;;;;;;;19.14;41.24;99978.00;4988957;28;20037;-69
2023/04/13 08:35:31;;;;;;;8.50;1.63;;;;;;;19.17;41.28;99990.06;4986657;28;20043;-66
2023/04/13 08:37:56;;;;;;;7.45;1.20;;;;;;;19.11;41.93;99986.22;4988590;28;20079;-68
2023/04/13 08:40:21;;;;;;;7.97;1.60;;;;;;;19.20;41.82;99997.66;4992358;28;20034;-65
2023/04/13 08:42:47;;;;;;;4.50;1.45;;;;;;;19.20;42.27;99989.75;4995070;28;20037;-68
2023/04/13 08:45:14;;;;;;;8.50;1.58;;;;;;;19.24;42.21;100000.84;4983397;28;20042;-67
2023/04/13 08:47:40;;;;;;;4.97;1.52;;;;;;;19.28;42.11;100015.41;4985003;28;20037;-68
2023/04/13 08:50:07;;;;;;;6.30;1.75;;;;;;;19.26;42.17;100012.09;4998214;28;20037;-67
2023/04/13 08:52:34;;;;;;;5.93;1.52;;;;;;;19.21;42.33;100017.84;4989357;28;20034;-67
2023/04/13 08:55:02;;;;;;;4.63;1.50;;;;;;;19.21;42.36;100017.84;4969991;28;20026;-68
2023/04/13 08:57:31;;;;;;;6.72;1.35;;;;;;;19.17;42.44;100017.31;4986854;28;20441;-68
2023/04/13 08:59:58;;;;;;;6.18;1.60;;;;;;;19.19;42.50;100035.66;4966869;28;20034;-69
2023/04/13 09:02:28;;;;;;;5.07;1.25;;;;;;;19.19;42.38;100038.28;4984738;28;20034;-70
2023/04/13 09:04:59;;;;;;;6.38;1.73;;;;;;;19.19;42.57;100044.41;4991713;28;20102;-73
2023/04/13 09:07:28;;;;;;;6.07;1.50;;;;;;;19.21;42.63;100045.06;4998499;28;20042;-68
2023/04/13 09:09:58;;;;;;;5.40;1.50;;;;;;;19.25;42.50;100047.41;4982933;28;20797;-67
2023/04/13 09:12:25;;;;;;;8.95;1.40;;;;;;;19.26;42.26;100057.00;4983247;28;20038;-67
2023/04/13 09:14:50;;;;;;;7.03;1.55;;;;;;;19.24;42.54;100053.69;4988915;28;20228;-68
2023/04/13 09:17:42;;;;;;;7.30;1.80;;;;;;;19.20;42.46;100056.63;4975076;28;20556;-65
2023/04/13 09:20:25;;;;;;;7.60;1.58;;;;;;;19.20;42.53;100061.91;4984576;28;20053;-67
2023/04/13 09:22:51;;;;;;;6.60;1.67;;;;;;;19.19;42.31;100067.34;4982439;28;20057;-67
2023/04/13 09:25:26;;;;;;;5.38;1.60;;;;;;;19.21;42.49;100079.41;4984035;28;20042;-68
2023/04/13 09:27:52;;;;;;;9.23;1.95;;;;;;;19.27;41.89;100072.69;4995566;28;20108;-67
2023/04/13 09:30:26;;;;;;;6.68;1.67;;;;;;;19.28;42.09;100081.44;4964903;28;20097;-66
2023/04/13 09:33:21;;;;;;;7.45;1.83;;;;;;;19.26;42.30;100093.97;4984302;28;20112;-64
2023/04/13 09:35:46;;;;;;;7.40;1.80;;;;;;;19.33;41.83;100093.25;4964966;28;20395;-66
2023/04/13 09:38:14;;;;;;;6.10;1.70;;;;;;;19.27;41.97;100090.38;4981842;28;20118;-65
2023/04/13 09:40:50;;;;;;;5.95;1.55;;;;;;;19.30;41.87;100096.19;4993711;28;20129;-63
2023/04/13 09:43:15;;;;;;;7.65;1.67;;;;;;;19.34;41.87;100108.13;4987243;28;20125;-67
2023/04/13 09:45:44;;;;;;;5.28;1.48;;;;;;;19.27;42.03;100112.31;4983776;28;20129;-65
2023/04/13 09:48:19;;;;;;;6.57;1.40;;;;;;;19.24;42.04;100109.16;4991921;28;20030;-65
2023/04/13 09:50:45;;;;;;;9.45;1.60;;;;;;;19.23;42.19;100125.97;4981602;28;20030;-64
2023/04/13 09:53:11;;;;;;;6.78;2.05;;;;;;;19.20;42.35;100125.31;4982057;28;20034;-67
2023/04/13 09:55:37;;;;;;;4.28;1.23;;;;;;;19.22;42.33;100133.09;4981478;28;20085;-65
2023/04/13 09:58:16;;;;;;;4.35;1.42;;;;;;;19.19;42.43;100143.94;4981542;28;20656;-67
2023/04/13 10:00:43;;;;;;;8.38;1.63;;;;;;;19.19;42.41;100143.94;4996597;28;20040;-65
2023/04/13 10:03:10;;;;;;;10.88;2.05;;;;;;;19.21;42.24;100148.09;4982089;28;20124;-64
2023/04/13 10:05:37;;;;;;;4.90;1.42;;;;;;;19.20;42.35;100148.22;4996197;28;20041;-63
2023/04/13 10:08:03;;;;;;;6.53;1.50;;;;;;;19.15;42.17;100166.34;5001290;28;20108;-65
2023/04/13 10:10:28;;;;;;;7.63;1.42;;;;;;;19.25;41.98;100167.13;4992012;28;20125;-65
2023/04/13 10:12:56;;;;;;;4.65;1.70;;;;;;;19.35;41.80;100162.59;4992052;28;20034;-65
2023/04/13 10:15:38;;;;;;;5.63;1.85;;;;;;;19.40;41.86;100159.50;4989413;28;20091;-65
2023/04/13 10:18:34;;;;;;;6.82;1.65;;;;;;;19.47;41.63;100170.31;4995315;28;20103;-66
2023/04/13 10:21:00;;;;;;;9.32;1.70;;;;;;;19.45;41.79;100182.84;4995512;28;20045;-67
2023/04/13 10:23:28;;;;;;;11.30;2.80;;;;;;;19.41;41.76;100171.75;4983699;28;20529;-66
2023/04/13 10:25:56;;;;;;;7.93;1.90;;;;;;;19.42;41.71;100181.31;5000960;28;20050;-66
2023/04/13 10:28:23;;;;;;;6.15;1.80;;;;;;;19.44;41.53;100179.38;4985563;28;20121;-68
2023/04/13 10:30:50;;;;;;;7.22;1.67;;;;;;;19.41;41.55;100192.91;4981999;28;20056;-67
2023/04/13 10:33:15;;;;;;;5.28;2.13;;;;;;;19.39;41.59;100179.84;4989286;28;20026;-66
2023/04/13 10:35:41;;;;;;;14.20;7.55;;;;;;;19.38;41.80;100191.38;4996279;28;20033;-69
2023/04/13 10:38:10;;;;;;;16.40;9.60;;;;;;;19.28;42.21;100179.19;4983271;28;21218;-68
2023/04/13 10:40:46;;;;;;;19.02;11.85;;;;;;;19.32;42.25;100186.69;4985000;28;20026;-69
2023/04/13 10:43:11;;;;;;;20.60;13.10;;;;;;;19.37;42.49;100196.81;4984838;28;20081;-68
2023/04/13 10:45:37;;;;;;;22.20;16.30;;;;;;;19.32;42.38;100193.78;4997077;28;20493;-68
2023/04/13 10:48:03;;;;;;;21.83;17.20;;;;;;;19.32;42.59;100197.25;4992454;28;20038;-68
2023/04/13 10:50:28;;;;;;;24.63;18.10;;;;;;;19.31;42.57;100197.38;4981855;28;20035;-69
2023/04/13 10:53:06;;;;;;;23.98;18.73;;;;;;;19.30;42.84;100206.31;4981914;28;20915;-68
2023/04/13 10:55:33;;;;;;;27.27;19.85;;;;;;;19.31;42.77;100214.09;4963727;28;20042;-68
2023/04/13 10:58:00;;;;;;;27.17;20.80;;;;;;;19.28;42.95;100211.75;4981955;28;20042;-68
2023/04/13 11:00:26;;;;;;;26.15;21.48;;;;;;;19.31;42.86;100229.09;4987037;28;20258;-69
2023/04/13 11:02:55;;;;;;;31.75;23.13;;;;;;;19.30;42.94;100233.56;4987088;28;20025;-68
2023/04/13 11:05:21;;;;;;;26.30;21.73;;;;;;;19.29;43.14;100242.44;4994311;28;20088;-69
2023/04/13 11:07:48;;;;;;;27.88;21.67;;;;;;;19.24;43.57;100234.13;4996184;28;20065;-69
2023/04/13 11:10:14;;;;;;;28.80;20.58;;;;;;;19.35;43.15;100233.13;4991103;28;20136;-70
2023/04/13 11:12:50;;;;;;;27.58;18.70;;;;;;;19.26;43.14;100231.34;5000036;28;20041;-66
2023/04/13 11:15:25;;;;;;;26.75;19.10;;;;;;;19.27;43.08;100249.69;4982363;28;20550;-65
2023/04/13 11:18:01;;;;;;;26.25;18.40;;;;;;;19.30;43.25;100246.75;5000176;28;20036;-69
2023/04/13 11:20:37;;;;;;;22.77;16.77;;;;;;;19.30;43.14;100254.69;4996187;28;20131;-68
2023/04/13 11:23:13;;;;;;;27.10;17.10;;;;;;;19.34;42.74;100250.78;5000454;28;20065;-69
2023/04/13 11:25:51;;;;;;;22.67;16.20;;;;;;;19.37;42.88;100254.94;4982800;28;20088;-69
2023/04/13 11:28:16;;;;;;;23.30;15.50;;;;;;;19.32;42.85;100246.63;4985548;28;20050;-69
2023/04/13 11:30:42;;;;;;;19.95;15.18;;;;;;;19.32;43.08;100249.25;4982314;28;20121;-67